createdAt,value
2018-02-18T00:00:25.047Z,0.00
2018-02-18T00:01:24.922Z,0.00
2018-02-18T00:02:24.867Z,0.00
2018-02-18T00:03:24.780Z,0.00
2018-02-18T00:04:24.790Z,0.00
2018-02-18T00:05:25.034Z,0.00
2018-02-18T00:06:24.763Z,0.00
2018-02-18T00:07:24.759Z,0.00
2018-02-18T00:08:24.662Z,0.00
2018-02-18T00:09:24.643Z,0.00
2018-02-18T00:10:24.634Z,0.00
2018-02-18T00:11:24.902Z,0.00
2018-02-18T00:12:24.621Z,0.00
2018-02-18T00:13:24.556Z,0.00
2018-02-18T00:14:24.617Z,0.00
2018-02-18T00:15:24.515Z,0.00
2018-02-18T00:16:24.478Z,0.00
2018-02-18T00:17:24.456Z,0.00
2018-02-18T00:18:24.747Z,0.00
2018-02-18T00:19:24.413Z,0.00
2018-02-18T00:20:24.437Z,0.00
2018-02-18T00:21:24.378Z,0.00
2018-02-18T00:22:24.341Z,0.00
2018-02-18T00:23:24.333Z,0.00
2018-02-18T00:24:24.403Z,0.00
2018-02-18T00:25:24.581Z,0.00
2018-02-18T00:26:24.248Z,0.00
2018-02-18T00:27:24.233Z,0.00
2018-02-18T00:28:24.207Z,0.00
2018-02-18T00:29:24.238Z,0.00
2018-02-18T00:30:24.163Z,0.00
2018-02-18T00:31:24.139Z,0.00
2018-02-18T00:32:24.412Z,0.00
2018-02-18T00:33:24.120Z,0.00
2018-02-18T00:34:24.114Z,0.00
2018-02-18T00:35:24.057Z,0.00
2018-02-18T00:36:24.019Z,0.00
2018-02-18T00:37:23.994Z,0.00
2018-02-18T00:38:23.979Z,0.00
2018-02-18T00:39:24.257Z,0.00
2018-02-18T00:41:23.977Z,0.00
2018-02-18T00:42:23.892Z,0.00
2018-02-18T00:43:23.865Z,0.00
2018-02-18T00:44:23.902Z,0.00
2018-02-18T00:45:23.813Z,0.00
2018-02-18T00:46:24.092Z,0.00
2018-02-18T00:47:23.818Z,0.00
2018-02-18T00:48:23.742Z,0.00
2018-02-18T00:49:23.719Z,0.00
2018-02-18T00:50:23.711Z,0.00
2018-02-18T00:51:23.673Z,0.00
2018-02-18T00:52:23.707Z,0.00
2018-02-18T00:53:23.930Z,0.00
2018-02-18T00:54:23.620Z,0.00
2018-02-18T00:55:23.592Z,0.00
2018-02-18T00:56:23.610Z,0.00
2018-02-18T00:57:23.541Z,0.00
2018-02-18T00:58:23.570Z,0.00
2018-02-18T00:59:23.790Z,0.00
2018-02-18T01:00:23.508Z,0.00
2018-02-18T01:01:23.500Z,0.00
2018-02-18T01:02:23.421Z,0.00
2018-02-18T01:03:23.414Z,0.00
2018-02-18T01:04:23.374Z,0.00
2018-02-18T01:05:23.662Z,0.00
2018-02-18T01:06:23.348Z,0.00
2018-02-18T01:07:23.425Z,0.00
2018-02-18T01:09:23.268Z,0.00
2018-02-18T01:10:23.245Z,0.00
2018-02-18T01:11:23.517Z,0.00
2018-02-18T01:12:23.289Z,0.00
2018-02-18T01:13:23.220Z,0.00
2018-02-18T01:14:23.149Z,0.00
2018-02-18T01:15:23.132Z,0.00
2018-02-18T01:16:23.101Z,0.00
2018-02-18T01:17:23.436Z,0.00
2018-02-18T01:18:23.061Z,0.00
2018-02-18T01:19:23.033Z,0.00
2018-02-18T01:20:23.012Z,0.00
2018-02-18T01:21:22.987Z,0.00
2018-02-18T01:22:23.013Z,0.00
2018-02-18T01:23:23.247Z,0.00
2018-02-18T01:24:22.914Z,0.00
2018-02-18T01:25:22.898Z,0.00
2018-02-18T01:26:22.884Z,0.00
2018-02-18T01:27:22.856Z,0.00
2018-02-18T01:28:22.876Z,0.00
2018-02-18T01:29:23.099Z,0.00
2018-02-18T01:30:22.779Z,0.00
2018-02-18T01:31:22.761Z,0.00
2018-02-18T01:32:22.737Z,0.00
2018-02-18T01:33:22.710Z,0.00
2018-02-18T01:34:22.734Z,0.00
2018-02-18T01:35:22.961Z,0.00
2018-02-18T01:36:22.638Z,0.00
2018-02-18T01:37:22.615Z,0.00
2018-02-18T01:38:22.603Z,0.00
2018-02-18T01:39:22.578Z,0.00
2018-02-18T01:40:22.906Z,0.00
2018-02-18T01:41:22.530Z,0.00
2018-02-18T01:42:22.809Z,0.00
2018-02-18T01:43:22.483Z,0.00
2018-02-18T01:44:22.454Z,0.00
2018-02-18T01:45:22.435Z,0.00
2018-02-18T01:46:22.472Z,0.00
2018-02-18T01:47:22.397Z,0.00
2018-02-18T01:48:22.360Z,0.00
2018-02-18T01:49:22.644Z,0.00
2018-02-18T01:50:22.322Z,0.00
2018-02-18T01:51:22.296Z,0.00
2018-02-18T01:52:22.324Z,0.00
2018-02-18T01:53:22.245Z,0.00
2018-02-18T01:54:22.227Z,0.00
2018-02-18T01:55:22.204Z,0.00
2018-02-18T01:56:22.477Z,0.00
2018-02-18T01:57:22.158Z,0.00
2018-02-18T01:58:22.184Z,0.00
2018-02-18T01:59:22.110Z,0.00
2018-02-18T02:00:22.079Z,0.00
2018-02-18T02:01:22.165Z,0.00
2018-02-18T02:02:22.042Z,0.00
2018-02-18T02:03:22.315Z,0.00
2018-02-18T02:04:21.994Z,0.00
2018-02-18T02:05:21.969Z,0.00
2018-02-18T02:06:21.989Z,0.00
2018-02-18T02:07:21.922Z,0.00
2018-02-18T02:08:21.894Z,0.00
2018-02-18T02:09:21.868Z,0.00
2018-02-18T02:10:22.144Z,0.00
2018-02-18T02:11:21.828Z,0.00
2018-02-18T02:12:21.904Z,0.00
2018-02-18T02:13:21.776Z,0.00
2018-02-18T02:14:21.749Z,0.00
2018-02-18T02:15:21.744Z,0.00
2018-02-18T02:16:21.706Z,0.00
2018-02-18T02:17:21.981Z,0.00
2018-02-18T02:18:21.713Z,0.00
2018-02-18T02:19:21.640Z,0.00
2018-02-18T02:20:21.616Z,0.00
2018-02-18T02:21:21.587Z,0.00
2018-02-18T02:22:21.568Z,0.00
2018-02-18T02:23:21.844Z,0.00
2018-02-18T02:24:21.571Z,0.00
2018-02-18T02:25:21.497Z,0.00
2018-02-18T02:26:21.475Z,0.00
2018-02-18T02:27:21.456Z,0.00
2018-02-18T02:28:21.426Z,0.00
2018-02-18T02:29:21.747Z,0.00
2018-02-18T02:30:21.379Z,0.00
2018-02-18T02:31:21.357Z,0.00
2018-02-18T02:32:21.324Z,0.00
2018-02-18T02:33:21.309Z,0.00
2018-02-18T02:34:21.378Z,0.00
2018-02-18T02:35:21.561Z,0.00
2018-02-18T02:36:21.341Z,0.00
2018-02-18T02:37:21.213Z,0.00
2018-02-18T02:38:21.180Z,0.00
2018-02-18T02:39:21.167Z,0.00
2018-02-18T02:40:21.143Z,0.00
2018-02-18T02:41:21.425Z,0.00
2018-02-18T02:42:21.136Z,0.00
2018-02-18T02:43:21.064Z,0.00
2018-02-18T02:44:21.057Z,0.00
2018-02-18T02:45:21.025Z,0.00
2018-02-18T02:46:21.044Z,0.00
2018-02-18T02:47:21.289Z,0.00
2018-02-18T02:48:20.945Z,0.00
2018-02-18T02:49:20.937Z,0.00
2018-02-18T02:50:20.899Z,0.00
2018-02-18T02:51:20.880Z,0.00
2018-02-18T02:52:20.955Z,0.00
2018-02-18T02:53:21.131Z,0.00
2018-02-18T02:54:20.803Z,0.00
2018-02-18T02:55:20.784Z,0.00
2018-02-18T02:56:20.753Z,0.00
2018-02-18T02:58:20.761Z,0.00
2018-02-18T02:59:20.688Z,0.00
2018-02-18T03:00:20.961Z,0.00
2018-02-18T03:01:20.682Z,0.00
2018-02-18T03:02:20.631Z,0.00
2018-02-18T03:03:20.600Z,0.00
2018-02-18T03:04:20.576Z,0.00
2018-02-18T03:05:20.547Z,0.00
2018-02-18T03:06:20.633Z,0.00
2018-02-18T03:07:20.811Z,0.00
2018-02-18T03:08:20.472Z,0.00
2018-02-18T03:09:20.448Z,0.00
2018-02-18T03:10:20.425Z,0.00
2018-02-18T03:11:20.500Z,0.00
2018-02-18T03:12:20.373Z,0.00
2018-02-18T03:13:20.352Z,0.00
2018-02-18T03:14:20.681Z,0.00
2018-02-18T03:15:20.301Z,0.00
2018-02-18T03:16:20.332Z,0.00
2018-02-18T03:17:20.250Z,0.00
2018-02-18T03:18:20.237Z,0.00
2018-02-18T03:19:20.202Z,0.00
2018-02-18T03:20:20.176Z,0.00
2018-02-18T03:21:20.460Z,0.00
2018-02-18T03:22:20.184Z,0.00
2018-02-18T03:23:20.112Z,0.00
2018-02-18T03:24:20.120Z,0.00
2018-02-18T03:25:20.069Z,0.00
2018-02-18T03:26:20.032Z,0.00
2018-02-18T03:27:20.010Z,0.00
2018-02-18T03:28:20.334Z,0.00
2018-02-18T03:29:19.968Z,0.00
2018-02-18T03:30:19.954Z,0.00
2018-02-18T03:31:19.933Z,0.00
2018-02-18T03:32:19.895Z,0.00
2018-02-18T03:33:19.918Z,0.00
2018-02-18T03:34:19.840Z,0.00
2018-02-18T03:36:20.094Z,0.00
2018-02-18T03:37:19.771Z,0.00
2018-02-18T03:38:19.754Z,0.00
2018-02-18T03:39:19.772Z,0.00
2018-02-18T03:40:19.715Z,0.00
2018-02-18T03:41:19.678Z,0.00
2018-02-18T03:42:19.697Z,0.00
2018-02-18T03:43:19.930Z,0.00
2018-02-18T03:44:19.612Z,0.00
2018-02-18T03:45:19.580Z,0.00
2018-02-18T03:46:19.557Z,0.00
2018-02-18T03:47:19.577Z,0.00
2018-02-18T03:48:19.516Z,0.00
2018-02-18T03:49:19.781Z,0.00
2018-02-18T03:50:19.462Z,0.00
2018-02-18T03:51:19.429Z,0.00
2018-02-18T03:52:19.419Z,0.00
2018-02-18T03:53:19.432Z,0.00
2018-02-18T03:55:19.389Z,0.00
2018-02-18T03:56:19.620Z,0.00
2018-02-18T03:57:19.285Z,0.00
2018-02-18T03:58:19.273Z,0.00
2018-02-18T03:59:19.242Z,0.00
2018-02-18T04:00:19.217Z,0.00
2018-02-18T04:01:19.240Z,0.00
2018-02-18T04:02:19.474Z,0.00
2018-02-18T04:03:19.142Z,0.00
2018-02-18T04:04:19.120Z,0.00
2018-02-18T04:05:19.092Z,0.00
2018-02-18T04:06:19.064Z,0.00
2018-02-18T04:08:19.323Z,0.00
2018-02-18T04:09:18.996Z,0.00
2018-02-18T04:10:18.974Z,0.00
2018-02-18T04:11:18.941Z,0.00
2018-02-18T04:12:19.378Z,0.00
2018-02-18T04:13:18.942Z,0.00
2018-02-18T04:14:19.179Z,0.00
2018-02-18T04:15:18.853Z,0.00
2018-02-18T04:16:18.819Z,0.00
2018-02-18T04:17:18.812Z,0.00
2018-02-18T04:18:18.835Z,0.00
2018-02-18T04:19:18.747Z,0.00
2018-02-18T04:20:19.024Z,0.00
2018-02-18T04:21:18.705Z,0.00
2018-02-18T04:22:18.687Z,0.00
2018-02-18T04:23:18.656Z,0.00
2018-02-18T04:24:18.680Z,0.00
2018-02-18T04:25:18.600Z,0.00
2018-02-18T04:26:18.587Z,0.00
2018-02-18T04:27:18.858Z,0.00
2018-02-18T04:28:18.526Z,0.00
2018-02-18T04:29:18.509Z,0.00
2018-02-18T04:30:18.888Z,0.00
2018-02-18T04:31:18.462Z,0.00
2018-02-18T04:32:18.429Z,0.00
2018-02-18T04:33:18.405Z,0.00
2018-02-18T04:34:18.697Z,0.00
2018-02-18T04:35:18.358Z,0.00
2018-02-18T04:36:18.438Z,0.00
2018-02-18T04:37:18.309Z,0.00
2018-02-18T04:38:18.282Z,0.00
2018-02-18T04:39:18.315Z,0.00
2018-02-18T04:40:18.239Z,0.00
2018-02-18T04:41:18.508Z,0.00
2018-02-18T04:42:18.184Z,0.00
2018-02-18T04:43:18.165Z,0.00
2018-02-18T04:44:18.146Z,0.00
2018-02-18T04:45:18.158Z,0.00
2018-02-18T04:46:18.082Z,0.00
2018-02-18T04:47:18.060Z,0.00
2018-02-18T04:48:18.345Z,0.00
2018-02-18T04:49:18.009Z,0.00
2018-02-18T04:50:17.989Z,0.00
2018-02-18T04:51:18.018Z,0.00
2018-02-18T04:52:17.935Z,0.00
2018-02-18T04:53:17.916Z,0.00
2018-02-18T04:54:17.941Z,0.00
2018-02-18T04:56:18.135Z,0.00
2018-02-18T04:57:17.821Z,0.00
2018-02-18T04:58:17.843Z,0.00
2018-02-18T04:59:17.760Z,0.00
2018-02-18T05:00:17.739Z,0.00
2018-02-18T05:01:17.710Z,0.00
2018-02-18T05:02:17.753Z,0.00
2018-02-18T05:03:17.964Z,0.00
2018-02-18T05:04:17.640Z,0.00
2018-02-18T05:05:17.619Z,0.00
2018-02-18T05:06:17.584Z,0.00
2018-02-18T05:07:17.620Z,0.00
2018-02-18T05:08:17.539Z,0.00
2018-02-18T05:09:17.833Z,0.00
2018-02-18T05:10:17.490Z,0.00
2018-02-18T05:11:17.476Z,0.00
2018-02-18T05:12:17.440Z,0.00
2018-02-18T05:13:17.518Z,0.00
2018-02-18T05:14:17.392Z,0.00
2018-02-18T05:15:17.659Z,0.00
2018-02-18T05:16:17.332Z,0.00
2018-02-18T05:17:17.312Z,0.00
2018-02-18T05:20:17.234Z,0.00
2018-02-18T05:21:17.513Z,0.00
2018-02-18T05:22:17.193Z,0.00
2018-02-18T05:23:17.170Z,0.00
2018-02-18T05:24:17.739Z,0.00
2018-02-18T05:25:17.112Z,0.00
2018-02-18T05:26:17.079Z,0.00
2018-02-18T05:27:17.353Z,0.00
2018-02-18T05:28:17.036Z,0.00
2018-02-18T05:29:17.003Z,0.00
2018-02-18T05:30:17.026Z,0.00
2018-02-18T05:31:17.057Z,0.00
2018-02-18T05:32:16.923Z,0.00
2018-02-18T05:33:17.205Z,0.00
2018-02-18T05:34:16.881Z,0.00
2018-02-18T05:35:16.850Z,0.00
2018-02-18T05:36:16.930Z,0.00
2018-02-18T05:37:16.806Z,0.00
2018-02-18T05:38:16.770Z,0.00
2018-02-18T05:39:17.055Z,0.00
2018-02-18T05:40:17.082Z,0.00
2018-02-18T05:41:16.691Z,0.00
2018-02-18T05:42:16.682Z,0.00
2018-02-18T05:43:16.642Z,0.00
2018-02-18T05:44:16.614Z,0.00
2018-02-18T05:45:16.898Z,0.00
2018-02-18T05:46:16.680Z,0.00
2018-02-18T05:47:16.537Z,0.00
2018-02-18T05:48:16.524Z,0.00
2018-02-18T05:49:16.483Z,0.00
2018-02-18T05:50:16.466Z,0.00
2018-02-18T05:51:16.487Z,0.00
2018-02-18T05:52:16.712Z,0.00
2018-02-18T05:53:16.397Z,0.00
2018-02-18T05:54:16.366Z,0.00
2018-02-18T05:55:16.331Z,0.00
2018-02-18T05:56:16.309Z,0.00
2018-02-18T05:57:16.392Z,4.00
2018-02-18T05:58:16.250Z,4.00
2018-02-18T05:59:16.541Z,0.00
2018-02-18T06:00:16.195Z,4.00
2018-02-18T06:01:16.169Z,0.00
2018-02-18T06:02:16.154Z,4.00
2018-02-18T06:04:16.149Z,8.00
2018-02-18T06:05:16.078Z,8.00
2018-02-18T06:06:16.352Z,8.00
2018-02-18T06:07:16.019Z,8.00
2018-02-18T06:08:15.991Z,12.00
2018-02-18T06:09:15.965Z,12.00
2018-02-18T06:10:15.995Z,16.00
2018-02-18T06:11:15.913Z,16.00
2018-02-18T06:12:15.878Z,16.00
2018-02-18T06:13:16.158Z,24.00
2018-02-18T06:14:15.838Z,28.00
2018-02-18T06:15:15.809Z,28.00
2018-02-18T06:16:15.836Z,32.00
2018-02-18T06:17:15.754Z,40.00
2018-02-18T06:18:15.730Z,48.00
2018-02-18T06:19:15.705Z,52.00
2018-02-18T06:20:15.970Z,60.00
2018-02-18T06:21:15.653Z,68.00
2018-02-18T06:22:15.665Z,76.00
2018-02-18T06:23:15.590Z,84.00
2018-02-18T06:24:15.570Z,96.00
2018-02-18T06:25:15.536Z,108.00
2018-02-18T06:26:15.537Z,120.00
2018-02-18T06:27:15.837Z,136.00
2018-02-18T06:28:15.465Z,148.00
2018-02-18T06:29:15.430Z,168.00
2018-02-18T06:30:15.413Z,180.00
2018-02-18T06:31:15.376Z,200.00
2018-02-18T06:32:15.363Z,216.00
2018-02-18T06:33:15.674Z,240.00
2018-02-18T06:34:15.304Z,260.00
2018-02-18T06:35:15.284Z,284.00
2018-02-18T06:36:15.257Z,304.00
2018-02-18T06:37:15.226Z,324.00
2018-02-18T06:38:15.269Z,344.00
2018-02-18T06:39:15.466Z,364.00
2018-02-18T06:40:15.194Z,388.00
2018-02-18T06:41:15.109Z,416.00
2018-02-18T06:42:15.090Z,448.00
2018-02-18T06:43:15.070Z,480.00
2018-02-18T06:45:15.311Z,552.00
2018-02-18T06:46:15.046Z,584.00
2018-02-18T06:47:14.955Z,628.00
2018-02-18T06:48:14.937Z,668.00
2018-02-18T06:49:14.898Z,692.00
2018-02-18T06:50:14.873Z,704.00
2018-02-18T06:51:15.145Z,744.00
2018-02-18T06:52:15.267Z,756.00
2018-02-18T06:53:14.800Z,780.00
2018-02-18T06:54:14.785Z,784.00
2018-02-18T06:55:14.747Z,784.00
2018-02-18T06:56:14.711Z,792.00
2018-02-18T06:57:14.993Z,812.00
2018-02-18T06:58:14.768Z,832.00
2018-02-18T06:59:14.641Z,860.00
2018-02-18T07:00:14.614Z,888.00
2018-02-18T07:01:14.581Z,916.00
2018-02-18T07:02:14.604Z,936.00
2018-02-18T07:03:14.843Z,960.00
2018-02-18T07:04:14.500Z,976.00
2018-02-18T07:05:14.474Z,1004.00
2018-02-18T07:06:14.499Z,1036.00
2018-02-18T07:07:14.480Z,1068.00
2018-02-18T07:09:14.380Z,1124.00
2018-02-18T07:10:14.753Z,1160.00
2018-02-18T07:11:14.316Z,1204.00
2018-02-18T07:12:14.297Z,1244.00
2018-02-18T07:13:14.276Z,1324.00
2018-02-18T07:14:14.289Z,1396.00
2018-02-18T07:15:14.219Z,1448.00
2018-02-18T07:17:14.174Z,1600.00
2018-02-18T07:18:14.491Z,1664.00
2018-02-18T07:19:14.159Z,1692.00
2018-02-18T07:20:14.087Z,1716.00
2018-02-18T07:21:14.108Z,1800.00
2018-02-18T07:22:14.038Z,1920.00
2018-02-18T07:23:14.010Z,1864.00
2018-02-18T07:24:13.980Z,1936.00
2018-02-18T07:25:14.277Z,1824.00
2018-02-18T07:26:13.932Z,1800.00
2018-02-18T07:27:13.953Z,1848.00
2018-02-18T07:28:13.877Z,2120.00
2018-02-18T07:29:13.957Z,1928.00
2018-02-18T07:30:13.923Z,2164.00
2018-02-18T07:31:13.802Z,2068.00
2018-02-18T07:32:14.078Z,2060.00
2018-02-18T07:33:13.798Z,2096.00
2018-02-18T07:34:13.726Z,2140.00
2018-02-18T07:35:13.753Z,2160.00
2018-02-18T07:36:13.671Z,2248.00
2018-02-18T07:37:13.651Z,2332.00
2018-02-18T07:38:13.622Z,2356.00
2018-02-18T07:39:13.907Z,2400.00
2018-02-18T07:40:13.669Z,2408.00
2018-02-18T07:41:13.554Z,2412.00
2018-02-18T07:42:13.528Z,2388.00
2018-02-18T07:43:13.497Z,2424.00
2018-02-18T07:44:13.475Z,2548.00
2018-02-18T07:45:13.447Z,2660.00
2018-02-18T07:46:13.774Z,2688.00
2018-02-18T07:47:13.404Z,2696.00
2018-02-18T07:48:13.377Z,2704.00
2018-02-18T07:49:13.356Z,2792.00
2018-02-18T07:50:13.343Z,2848.00
2018-02-18T07:51:13.318Z,2924.00
2018-02-18T07:52:13.334Z,3036.00
2018-02-18T07:53:13.566Z,3052.00
2018-02-18T07:54:13.241Z,3060.00
2018-02-18T07:55:13.212Z,3112.00
2018-02-18T07:56:13.210Z,3136.00
2018-02-18T07:57:13.174Z,3168.00
2018-02-18T07:59:13.177Z,3228.00
2018-02-18T08:00:13.402Z,3272.00
2018-02-18T08:01:13.085Z,3292.00
2018-02-18T08:02:13.069Z,3316.00
2018-02-18T08:03:13.086Z,3376.00
2018-02-18T08:04:13.033Z,3404.00
2018-02-18T08:05:13.001Z,3432.00
2018-02-18T08:06:13.274Z,3468.00
2018-02-18T08:07:12.960Z,3496.00
2018-02-18T08:08:13.031Z,3544.00
2018-02-18T08:09:12.919Z,3532.00
2018-02-18T08:10:12.908Z,3644.00
2018-02-18T08:11:12.874Z,3684.00
2018-02-18T08:12:13.152Z,3748.00
2018-02-18T08:13:12.877Z,3812.00
2018-02-18T08:14:12.869Z,3872.00
2018-02-18T08:15:12.839Z,3932.00
2018-02-18T08:16:12.770Z,4012.00
2018-02-18T08:17:12.750Z,4092.00
2018-02-18T08:18:13.038Z,4164.00
2018-02-18T08:19:12.811Z,4244.00
2018-02-18T08:21:12.671Z,4356.00
2018-02-18T08:22:12.708Z,4420.00
2018-02-18T08:23:12.655Z,4460.00
2018-02-18T08:24:12.921Z,4512.00
2018-02-18T08:25:12.601Z,4568.00
2018-02-18T08:26:12.583Z,4592.00
2018-02-18T08:27:12.562Z,4652.00
2018-02-18T08:29:12.626Z,4744.00
2018-02-18T08:30:12.840Z,4752.00
2018-02-18T08:31:12.486Z,4792.00
2018-02-18T08:32:12.467Z,4820.00
2018-02-18T08:33:12.462Z,4852.00
2018-02-18T08:34:12.437Z,4884.00
2018-02-18T08:35:12.477Z,4912.00
2018-02-18T08:36:12.405Z,4944.00
2018-02-18T08:37:12.690Z,4980.00
2018-02-18T08:38:12.364Z,5060.00
2018-02-18T08:39:12.354Z,5120.00
2018-02-18T08:40:12.389Z,5132.00
2018-02-18T08:41:12.314Z,5112.00
2018-02-18T08:42:12.304Z,5160.00
2018-02-18T08:43:12.344Z,5164.00
2018-02-18T08:44:12.563Z,5244.00
2018-02-18T08:45:12.251Z,5316.00
2018-02-18T08:46:12.241Z,5316.00
2018-02-18T08:47:12.224Z,5380.00
2018-02-18T08:48:12.303Z,5516.00
2018-02-18T08:49:12.191Z,5728.00
2018-02-18T08:50:12.176Z,5832.00
2018-02-18T08:51:12.463Z,6196.00
2018-02-18T08:54:12.146Z,5964.00
2018-02-18T08:55:12.231Z,5920.00
2018-02-18T08:56:12.125Z,6048.00
2018-02-18T08:57:12.068Z,6256.00
2018-02-18T08:58:12.358Z,6572.00
2018-02-18T08:59:12.091Z,6780.00
2018-02-18T09:00:12.045Z,7020.00
2018-02-18T09:01:12.015Z,6904.00
2018-02-18T09:02:11.991Z,7208.00
2018-02-18T09:03:12.051Z,7128.00
2018-02-18T09:04:11.969Z,7096.00
2018-02-18T09:05:12.362Z,7048.00
2018-02-18T09:06:11.967Z,6692.00
2018-02-18T09:07:11.926Z,7832.00
2018-02-18T09:08:11.911Z,8712.00
2018-02-18T09:09:11.894Z,8124.00
2018-02-18T09:10:11.992Z,8596.00
2018-02-18T09:11:11.866Z,8652.00
2018-02-18T09:13:12.197Z,10188.00
2018-02-18T09:14:11.883Z,10540.00
2018-02-18T09:15:11.810Z,11068.00
2018-02-18T09:16:11.811Z,10556.00
2018-02-18T09:17:11.841Z,10232.00
2018-02-18T09:18:11.777Z,10012.00
2018-02-18T09:19:11.766Z,10180.00
2018-02-18T09:20:12.046Z,10592.00
2018-02-18T09:21:11.786Z,10340.00
2018-02-18T09:22:11.725Z,10268.00
2018-02-18T09:23:11.705Z,10452.00
2018-02-18T09:24:11.694Z,10600.00
2018-02-18T09:25:11.676Z,10556.00
2018-02-18T09:26:11.964Z,10596.00
2018-02-18T09:27:11.760Z,10564.00
2018-02-18T09:28:11.661Z,11184.00
2018-02-18T09:29:11.625Z,11644.00
2018-02-18T09:30:11.660Z,12660.00
2018-02-18T09:31:11.590Z,11904.00
2018-02-18T09:32:11.874Z,12320.00
2018-02-18T09:33:11.569Z,12344.00
2018-02-18T09:34:11.550Z,11664.00
2018-02-18T09:35:11.583Z,12268.00
2018-02-18T09:36:11.624Z,13708.00
2018-02-18T09:37:11.507Z,13748.00
2018-02-18T09:38:11.806Z,13800.00
2018-02-18T09:39:11.534Z,13560.00
2018-02-18T09:40:11.468Z,14360.00
2018-02-18T09:41:11.462Z,14108.00
2018-02-18T09:42:11.441Z,14452.00
2018-02-18T09:43:11.426Z,14248.00
2018-02-18T09:44:11.758Z,16448.00
2018-02-18T09:45:11.402Z,18336.00
2018-02-18T09:46:11.382Z,20448.00
2018-02-18T09:47:11.467Z,24032.00
2018-02-18T09:49:11.353Z,26752.00
2018-02-18T09:50:11.338Z,25952.00
2018-02-18T09:51:11.623Z,24704.00
2018-02-18T09:52:11.308Z,22720.00
2018-02-18T09:53:11.339Z,20416.00
2018-02-18T09:54:11.296Z,19744.00
2018-02-18T09:55:11.295Z,19264.00
2018-02-18T09:56:11.310Z,18336.00
2018-02-18T09:57:11.543Z,17280.00
2018-02-18T09:58:11.225Z,16448.00
2018-02-18T09:59:11.220Z,15744.00
2018-02-18T10:00:11.199Z,13456.00
2018-02-18T10:01:11.189Z,15392.00
2018-02-18T10:02:11.380Z,15168.00
2018-02-18T10:03:11.468Z,15296.00
2018-02-18T10:04:11.152Z,15424.00
2018-02-18T10:05:11.204Z,15680.00
2018-02-18T10:06:11.128Z,15776.00
2018-02-18T10:07:11.146Z,15424.00
2018-02-18T10:08:11.160Z,7920.00
2018-02-18T10:09:11.104Z,14152.00
2018-02-18T10:10:11.375Z,14148.00
2018-02-18T10:11:11.071Z,13648.00
2018-02-18T10:13:11.036Z,12152.00
2018-02-18T10:14:11.091Z,9268.00
2018-02-18T10:15:11.012Z,7340.00
2018-02-18T10:17:11.353Z,12480.00
2018-02-18T10:19:10.986Z,12180.00
2018-02-18T10:20:10.963Z,12332.00
2018-02-18T10:21:11.009Z,7088.00
2018-02-18T10:22:10.975Z,6972.00
2018-02-18T10:23:11.023Z,12616.00
2018-02-18T10:25:11.206Z,12584.00
2018-02-18T10:26:10.892Z,12636.00
2018-02-18T10:27:10.918Z,12372.00
2018-02-18T10:28:10.929Z,12328.00
2018-02-18T10:29:10.904Z,12148.00
2018-02-18T10:30:10.977Z,11992.00
2018-02-18T10:31:10.949Z,11624.00
2018-02-18T10:32:11.255Z,11472.00
2018-02-18T10:33:10.895Z,11588.00
2018-02-18T10:34:11.039Z,11956.00
2018-02-18T10:35:10.819Z,11964.00
2018-02-18T10:36:10.883Z,11876.00
2018-02-18T10:37:10.790Z,11824.00
2018-02-18T10:38:10.843Z,11844.00
2018-02-18T10:39:11.377Z,11804.00
2018-02-18T10:40:10.811Z,11980.00
2018-02-18T10:41:10.831Z,12620.00
2018-02-18T10:42:10.828Z,13236.00
2018-02-18T10:43:10.680Z,13664.00
2018-02-18T10:44:10.678Z,13684.00
2018-02-18T10:45:10.739Z,13692.00
2018-02-18T10:46:10.929Z,13424.00
2018-02-18T10:47:10.666Z,13816.00
2018-02-18T10:48:10.667Z,15008.00
2018-02-18T10:49:10.593Z,19392.00
2018-02-18T10:50:10.657Z,11692.00
2018-02-18T10:51:10.654Z,10068.00
2018-02-18T10:52:10.569Z,24352.00
2018-02-18T10:53:10.914Z,28096.00
2018-02-18T10:54:10.560Z,27520.00
2018-02-18T10:55:10.534Z,25440.00
2018-02-18T10:56:10.519Z,25088.00
2018-02-18T10:57:10.566Z,27904.00
2018-02-18T10:58:10.496Z,8792.00
2018-02-18T10:59:10.786Z,27968.00
2018-02-18T11:00:10.474Z,32384.00
2018-02-18T11:01:10.481Z,31456.00
2018-02-18T11:02:10.459Z,26912.00
2018-02-18T11:03:10.494Z,15296.00
2018-02-18T11:04:10.509Z,25024.00
2018-02-18T11:05:10.766Z,36000.00
2018-02-18T11:06:10.404Z,36576.00
2018-02-18T11:07:10.439Z,36032.00
2018-02-18T11:08:10.602Z,36704.00
2018-02-18T11:09:10.836Z,36896.00
2018-02-18T11:10:10.431Z,35936.00
2018-02-18T11:11:10.878Z,35584.00
2018-02-18T11:12:10.350Z,35168.00
2018-02-18T11:13:10.335Z,32832.00
2018-02-18T11:14:10.318Z,35712.00
2018-02-18T11:15:10.358Z,35360.00
2018-02-18T11:16:10.314Z,35776.00
2018-02-18T11:17:10.579Z,37056.00
2018-02-18T11:19:10.617Z,36064.00
2018-02-18T11:20:10.248Z,35392.00
2018-02-18T11:21:10.240Z,35360.00
2018-02-18T11:22:10.224Z,36448.00
2018-02-18T11:24:10.502Z,35424.00
2018-02-18T11:25:10.243Z,34976.00
2018-02-18T11:26:10.190Z,33440.00
2018-02-18T11:27:10.183Z,32864.00
2018-02-18T11:28:10.166Z,33408.00
2018-02-18T11:29:10.156Z,35776.00
2018-02-18T11:30:10.445Z,36384.00
2018-02-18T11:31:10.186Z,33728.00
2018-02-18T11:32:10.122Z,30400.00
2018-02-18T11:33:10.108Z,29184.00
2018-02-18T11:34:10.097Z,26848.00
2018-02-18T11:35:10.083Z,25664.00
2018-02-18T11:36:10.421Z,24064.00
2018-02-18T11:37:10.368Z,26784.00
2018-02-18T11:38:10.054Z,31808.00
2018-02-18T11:39:10.046Z,35360.00
2018-02-18T11:40:10.050Z,35904.00
2018-02-18T11:41:10.028Z,36768.00
2018-02-18T11:43:10.356Z,38784.00
2018-02-18T11:44:09.984Z,39520.00
2018-02-18T11:45:09.979Z,41472.00
2018-02-18T11:46:09.968Z,41952.00
2018-02-18T11:47:09.953Z,41472.00
2018-02-18T11:48:09.990Z,41024.00
2018-02-18T11:49:09.943Z,40416.00
2018-02-18T11:50:10.234Z,40576.00
2018-02-18T11:51:09.912Z,39744.00
2018-02-18T11:52:10.010Z,38848.00
2018-02-18T11:53:09.895Z,38656.00
2018-02-18T11:54:09.885Z,37312.00
2018-02-18T11:55:09.978Z,36160.00
2018-02-18T11:56:09.942Z,35360.00
2018-02-18T11:57:10.201Z,34752.00
2018-02-18T11:59:09.833Z,21120.00
2018-02-18T12:00:09.885Z,36992.00
2018-02-18T12:01:09.809Z,37952.00
2018-02-18T12:02:09.794Z,37920.00
2018-02-18T12:03:09.838Z,37088.00
2018-02-18T12:04:10.090Z,36832.00
2018-02-18T12:05:09.769Z,36704.00
2018-02-18T12:06:09.768Z,36416.00
2018-02-18T12:07:09.742Z,37184.00
2018-02-18T12:08:09.734Z,36960.00
2018-02-18T12:09:09.766Z,37344.00
2018-02-18T12:10:09.704Z,37504.00
2018-02-18T12:12:09.693Z,34752.00
2018-02-18T12:13:09.680Z,31712.00
2018-02-18T12:14:09.676Z,32096.00
2018-02-18T12:15:09.722Z,31968.00
2018-02-18T12:16:09.645Z,33472.00
2018-02-18T12:17:10.427Z,33376.00
2018-02-18T12:18:10.391Z,33088.00
2018-02-18T12:19:09.609Z,34048.00
2018-02-18T12:20:09.711Z,34144.00
2018-02-18T12:21:09.589Z,33440.00
2018-02-18T12:22:09.585Z,32288.00
2018-02-18T12:23:09.568Z,31680.00
2018-02-18T12:24:09.610Z,30240.00
2018-02-18T12:25:09.847Z,30496.00
2018-02-18T12:26:09.544Z,30688.00
2018-02-18T12:27:09.536Z,29440.00
2018-02-18T12:28:09.563Z,29344.00
2018-02-18T12:29:09.500Z,28384.00
2018-02-18T12:30:09.495Z,27392.00
2018-02-18T12:31:09.841Z,26080.00
2018-02-18T12:32:09.716Z,25792.00
2018-02-18T12:33:09.586Z,25088.00
2018-02-18T12:34:09.457Z,25184.00
2018-02-18T12:35:09.447Z,24960.00
2018-02-18T12:36:09.483Z,25472.00
2018-02-18T12:37:09.944Z,25824.00
2018-02-18T12:38:09.470Z,25792.00
2018-02-18T12:39:09.410Z,25792.00
2018-02-18T12:40:09.386Z,26016.00
2018-02-18T12:41:09.429Z,26176.00
2018-02-18T12:42:09.377Z,25696.00
2018-02-18T12:43:09.660Z,25184.00
2018-02-18T12:44:09.340Z,24384.00
2018-02-18T12:45:09.338Z,24640.00
2018-02-18T12:46:09.349Z,22592.00
2018-02-18T12:47:09.360Z,23200.00
2018-02-18T12:48:09.310Z,22624.00
2018-02-18T12:49:09.591Z,21824.00
2018-02-18T12:50:09.391Z,20864.00
2018-02-18T12:51:09.282Z,21344.00
2018-02-18T12:52:09.265Z,20320.00
2018-02-18T12:53:09.854Z,18560.00
2018-02-18T12:54:09.240Z,19488.00
2018-02-18T12:55:09.526Z,20640.00
2018-02-18T12:56:09.215Z,20576.00
2018-02-18T12:57:09.215Z,20800.00
2018-02-18T12:58:09.207Z,20544.00
2018-02-18T12:59:09.235Z,20000.00
2018-02-18T13:00:09.176Z,19552.00
2018-02-18T13:01:09.472Z,17056.00
2018-02-18T13:02:09.254Z,10608.00
2018-02-18T13:03:09.365Z,19680.00